sensor_id;sensor_type;location;lat;lon;timestamp;pressure;altitude;pressure_sealevel;temperature;humidity
11339;BME280;5724;42.684;23.252;2023-04-06T00:01:40;94091.56;;;-2.42;88.58
11339;BME280;5724;42.684;23.252;2023-04-06T00:04:05;94077.13;;;-2.41;88.17
11339;BME280;5724;42.684;23.252;2023-04-06T00:06:32;94093.50;;;-2.23;88.26
11339;BME280;5724;42.684;23.252;2023-04-06T00:08:58;94086.91;;;-2.31;87.84
11339;BME280;5724;42.684;23.252;2023-04-06T00:11:24;94090.91;;;-2.28;88.07
11339;BME280;5724;42.684;23.252;2023-04-06T00:13:50;94081.31;;;-2.35;88.23
11339;BME280;5724;42.684;23.252;2023-04-06T00:16:15;94081.03;;;-2.33;88.29
11339;BME280;5724;42.684;23.252;2023-04-06T00:18:41;94082.19;;;-2.39;88.09
11339;BME280;5724;42.684;23.252;2023-04-06T00:21:06;94070.78;;;-2.26;87.97
11339;BME280;5724;42.684;23.252;2023-04-06T00:23:32;94072.38;;;-2.49;88.46
11339;BME280;5724;42.684;23.252;2023-04-06T00:25:57;94069.91;;;-2.40;88.57
11339;BME280;5724;42.684;23.252;2023-04-06T00:28:23;94064.75;;;-2.37;88.83
11339;BME280;5724;42.684;23.252;2023-04-06T00:30:52;94049.28;;;-2.40;88.74
11339;BME280;5724;42.684;23.252;2023-04-06T00:33:19;94055.25;;;-2.24;88.44
11339;BME280;5724;42.684;23.252;2023-04-06T00:35:45;94055.69;;;-2.17;88.15
11339;BME280;5724;42.684;23.252;2023-04-06T00:38:11;94045.41;;;-2.28;88.47
11339;BME280;5724;42.684;23.252;2023-04-06T00:40:37;94054.44;;;-2.24;88.03
11339;BME280;5724;42.684;23.252;2023-04-06T00:43:07;94052.72;;;-2.15;87.81
11339;BME280;5724;42.684;23.252;2023-04-06T00:45:34;94057.53;;;-2.12;87.67
11339;BME280;5724;42.684;23.252;2023-04-06T00:48:00;94048.13;;;-2.10;87.44
11339;BME280;5724;42.684;23.252;2023-04-06T00:50:27;94048.97;;;-2.14;87.76
11339;BME280;5724;42.684;23.252;2023-04-06T00:52:53;94042.41;;;-2.22;88.04
11339;BME280;5724;42.684;23.252;2023-04-06T00:55:20;94043.13;;;-2.16;88.38
11339;BME280;5724;42.684;23.252;2023-04-06T00:57:45;94050.50;;;-2.08;87.75
11339;BME280;5724;42.684;23.252;2023-04-06T01:00:11;94042.78;;;-2.10;87.78
11339;BME280;5724;42.684;23.252;2023-04-06T01:02:38;94039.13;;;-2.19;88.15
11339;BME280;5724;42.684;23.252;2023-04-06T01:05:04;94042.03;;;-2.15;88.48
11339;BME280;5724;42.684;23.252;2023-04-06T01:07:29;94052.19;;;-2.12;88.85
11339;BME280;5724;42.684;23.252;2023-04-06T01:09:55;94058.59;;;-2.13;87.88
11339;BME280;5724;42.684;23.252;2023-04-06T01:12:20;94048.59;;;-2.03;88.43
11339;BME280;5724;42.684;23.252;2023-04-06T01:14:46;94051.00;;;-2.06;87.75
11339;BME280;5724;42.684;23.252;2023-04-06T01:17:12;94041.56;;;-2.22;88.74
11339;BME280;5724;42.684;23.252;2023-04-06T01:19:37;94048.63;;;-2.08;88.90
11339;BME280;5724;42.684;23.252;2023-04-06T01:22:03;94041.34;;;-2.02;88.24
11339;BME280;5724;42.684;23.252;2023-04-06T01:24:28;94044.56;;;-2.05;87.76
11339;BME280;5724;42.684;23.252;2023-04-06T01:26:54;94043.22;;;-2.03;88.20
11339;BME280;5724;42.684;23.252;2023-04-06T01:29:21;94036.69;;;-1.96;88.29
11339;BME280;5724;42.684;23.252;2023-04-06T01:31:47;94032.88;;;-1.90;88.72
11339;BME280;5724;42.684;23.252;2023-04-06T01:34:12;94031.63;;;-1.98;88.70
11339;BME280;5724;42.684;23.252;2023-04-06T01:36:38;94030.75;;;-1.93;88.75
11339;BME280;5724;42.684;23.252;2023-04-06T01:39:03;94030.56;;;-1.97;88.76
11339;BME280;5724;42.684;23.252;2023-04-06T01:41:29;94036.41;;;-1.95;88.89
11339;BME280;5724;42.684;23.252;2023-04-06T01:43:54;94026.59;;;-1.99;88.71
11339;BME280;5724;42.684;23.252;2023-04-06T01:46:20;94024.06;;;-1.91;88.68
11339;BME280;5724;42.684;23.252;2023-04-06T01:48:46;94032.50;;;-1.84;88.42
11339;BME280;5724;42.684;23.252;2023-04-06T01:51:11;94017.31;;;-2.07;88.54
11339;BME280;5724;42.684;23.252;2023-04-06T01:53:37;94022.22;;;-1.95;88.88
11339;BME280;5724;42.684;23.252;2023-04-06T01:56:02;94023.69;;;-1.84;88.55
11339;BME280;5724;42.684;23.252;2023-04-06T01:58:28;94017.81;;;-1.86;87.75
11339;BME280;5724;42.684;23.252;2023-04-06T02:00:53;94019.78;;;-1.92;87.91
11339;BME280;5724;42.684;23.252;2023-04-06T02:03:19;94011.22;;;-1.94;88.29
11339;BME280;5724;42.684;23.252;2023-04-06T02:05:45;94021.25;;;-1.81;88.09
11339;BME280;5724;42.684;23.252;2023-04-06T02:08:10;94021.75;;;-1.79;87.68
11339;BME280;5724;42.684;23.252;2023-04-06T02:10:36;94016.03;;;-1.91;88.05
11339;BME280;5724;42.684;23.252;2023-04-06T02:13:01;94008.94;;;-1.82;87.89
11339;BME280;5724;42.684;23.252;2023-04-06T02:15:27;94012.72;;;-1.83;87.57
11339;BME280;5724;42.684;23.252;2023-04-06T02:17:53;94016.03;;;-1.91;87.91
11339;BME280;5724;42.684;23.252;2023-04-06T02:20:18;94003.78;;;-1.97;88.23
11339;BME280;5724;42.684;23.252;2023-04-06T02:22:44;93995.75;;;-1.97;88.13
11339;BME280;5724;42.684;23.252;2023-04-06T02:25:10;94011.75;;;-1.92;88.52
11339;BME280;5724;42.684;23.252;2023-04-06T02:27:36;94005.66;;;-1.97;88.30
11339;BME280;5724;42.684;23.252;2023-04-06T02:30:03;94013.19;;;-1.99;88.61
11339;BME280;5724;42.684;23.252;2023-04-06T02:32:28;94010.16;;;-1.93;88.62
11339;BME280;5724;42.684;23.252;2023-04-06T02:34:54;94009.13;;;-1.97;88.93
11339;BME280;5724;42.684;23.252;2023-04-06T02:37:19;94015.44;;;-1.88;88.69
11339;BME280;5724;42.684;23.252;2023-04-06T02:39:45;94020.00;;;-1.88;88.83
11339;BME280;5724;42.684;23.252;2023-04-06T02:42:11;94015.28;;;-1.78;88.82
11339;BME280;5724;42.684;23.252;2023-04-06T02:44:36;94023.63;;;-1.79;88.23
11339;BME280;5724;42.684;23.252;2023-04-06T02:47:01;94021.78;;;-1.84;88.31
11339;BME280;5724;42.684;23.252;2023-04-06T02:49:27;94020.50;;;-1.86;88.40
11339;BME280;5724;42.684;23.252;2023-04-06T02:51:52;94013.25;;;-1.86;88.71
11339;BME280;5724;42.684;23.252;2023-04-06T02:54:18;94018.56;;;-1.81;88.44
11339;BME280;5724;42.684;23.252;2023-04-06T02:56:43;94022.31;;;-2.00;87.91
11339;BME280;5724;42.684;23.252;2023-04-06T02:59:09;94013.25;;;-1.86;88.16
11339;BME280;5724;42.684;23.252;2023-04-06T03:01:35;94019.50;;;-1.90;88.21
11339;BME280;5724;42.684;23.252;2023-04-06T03:04:01;94015.28;;;-1.96;88.29
11339;BME280;5724;42.684;23.252;2023-04-06T03:06:26;94017.03;;;-1.87;88.31
11339;BME280;5724;42.684;23.252;2023-04-06T03:08:52;93999.81;;;-1.99;87.63
11339;BME280;5724;42.684;23.252;2023-04-06T03:11:17;94010.16;;;-2.12;89.46
11339;BME280;5724;42.684;23.252;2023-04-06T03:13:43;94021.72;;;-1.97;88.54
11339;BME280;5724;42.684;23.252;2023-04-06T03:16:08;94010.28;;;-1.84;88.75
11339;BME280;5724;42.684;23.252;2023-04-06T03:18:34;94021.69;;;-1.74;87.85
11339;BME280;5724;42.684;23.252;2023-04-06T03:20:59;94010.59;;;-1.86;87.94
11339;BME280;5724;42.684;23.252;2023-04-06T03:23:26;94009.44;;;-1.80;87.60
11339;BME280;5724;42.684;23.252;2023-04-06T03:25:51;94007.56;;;-1.79;87.67
11339;BME280;5724;42.684;23.252;2023-04-06T03:28:17;94015.78;;;-1.76;87.68
11339;BME280;5724;42.684;23.252;2023-04-06T03:30:42;93999.59;;;-1.84;87.46
11339;BME280;5724;42.684;23.252;2023-04-06T03:33:08;94010.69;;;-1.72;87.39
11339;BME280;5724;42.684;23.252;2023-04-06T03:35:33;94001.13;;;-1.78;86.85
11339;BME280;5724;42.684;23.252;2023-04-06T03:37:59;93995.41;;;-1.71;87.06
11339;BME280;5724;42.684;23.252;2023-04-06T03:40:24;93999.03;;;-1.81;87.40
11339;BME280;5724;42.684;23.252;2023-04-06T03:42:50;93995.84;;;-1.83;86.66
11339;BME280;5724;42.684;23.252;2023-04-06T03:45:16;94003.28;;;-1.80;86.98
11339;BME280;5724;42.684;23.252;2023-04-06T03:47:42;93994.06;;;-1.74;86.74
11339;BME280;5724;42.684;23.252;2023-04-06T03:50:07;93997.50;;;-1.68;86.56
11339;BME280;5724;42.684;23.252;2023-04-06T03:52:34;94001.91;;;-1.59;86.00
11339;BME280;5724;42.684;23.252;2023-04-06T03:55:00;94001.47;;;-1.66;85.95
11339;BME280;5724;42.684;23.252;2023-04-06T03:57:25;94001.25;;;-1.69;86.25
11339;BME280;5724;42.684;23.252;2023-04-06T03:59:51;94003.94;;;-1.69;86.09
11339;BME280;5724;42.684;23.252;2023-04-06T04:02:16;94000.81;;;-1.77;86.23
11339;BME280;5724;42.684;23.252;2023-04-06T04:04:42;93999.03;;;-1.62;87.36
11339;BME280;5724;42.684;23.252;2023-04-06T04:07:07;94000.09;;;-1.63;85.91
11339;BME280;5724;42.684;23.252;2023-04-06T04:09:33;93999.44;;;-1.74;86.13
11339;BME280;5724;42.684;23.252;2023-04-06T04:11:58;94004.94;;;-1.65;86.29
11339;BME280;5724;42.684;23.252;2023-04-06T04:14:24;94009.50;;;-1.66;86.31
11339;BME280;5724;42.684;23.252;2023-04-06T04:16:50;94013.41;;;-1.58;86.01
11339;BME280;5724;42.684;23.252;2023-04-06T04:19:16;94009.06;;;-1.54;86.08
11339;BME280;5724;42.684;23.252;2023-04-06T04:21:43;94006.25;;;-1.63;86.02
11339;BME280;5724;42.684;23.252;2023-04-06T04:24:09;93998.06;;;-1.53;86.10
11339;BME280;5724;42.684;23.252;2023-04-06T04:26:35;94001.59;;;-1.57;85.60
11339;BME280;5724;42.684;23.252;2023-04-06T04:29:00;94010.81;;;-1.63;86.45
11339;BME280;5724;42.684;23.252;2023-04-06T04:31:26;94004.94;;;-1.65;86.02
11339;BME280;5724;42.684;23.252;2023-04-06T04:33:51;94007.69;;;-1.52;85.72
11339;BME280;5724;42.684;23.252;2023-04-06T04:36:16;94008.78;;;-1.53;86.00
11339;BME280;5724;42.684;23.252;2023-04-06T04:38:42;94013.34;;;-1.53;86.32
11339;BME280;5724;42.684;23.252;2023-04-06T04:41:07;94011.66;;;-1.49;86.29
11339;BME280;5724;42.684;23.252;2023-04-06T04:43:33;94011.75;;;-1.54;85.51
11339;BME280;5724;42.684;23.252;2023-04-06T04:45:58;94010.22;;;-1.60;86.16
11339;BME280;5724;42.684;23.252;2023-04-06T04:48:24;94009.56;;;-1.52;86.32
11339;BME280;5724;42.684;23.252;2023-04-06T04:50:50;94005.94;;;-1.42;86.35
11339;BME280;5724;42.684;23.252;2023-04-06T04:53:16;94002.78;;;-1.45;86.49
11339;BME280;5724;42.684;23.252;2023-04-06T04:55:41;94013.09;;;-1.38;85.55
11339;BME280;5724;42.684;23.252;2023-04-06T04:58:07;94011.53;;;-1.58;86.86
11339;BME280;5724;42.684;23.252;2023-04-06T05:00:34;94000.31;;;-1.60;86.52
11339;BME280;5724;42.684;23.252;2023-04-06T05:02:59;94005.06;;;-1.57;86.61
11339;BME280;5724;42.684;23.252;2023-04-06T05:05:25;94007.84;;;-1.62;87.55
11339;BME280;5724;42.684;23.252;2023-04-06T05:07:51;94001.16;;;-1.46;86.88
11339;BME280;5724;42.684;23.252;2023-04-06T05:10:16;94008.31;;;-1.41;87.14
11339;BME280;5724;42.684;23.252;2023-04-06T05:12:42;93992.53;;;-1.42;86.98
11339;BME280;5724;42.684;23.252;2023-04-06T05:15:08;94001.88;;;-1.40;87.03
11339;BME280;5724;42.684;23.252;2023-04-06T05:17:34;94002.47;;;-1.43;87.11
11339;BME280;5724;42.684;23.252;2023-04-06T05:19:59;94005.94;;;-1.42;87.39
11339;BME280;5724;42.684;23.252;2023-04-06T05:22:25;94003.97;;;-1.37;87.19
11339;BME280;5724;42.684;23.252;2023-04-06T05:24:51;94016.69;;;-1.29;87.58
11339;BME280;5724;42.684;23.252;2023-04-06T05:27:16;93998.44;;;-1.27;87.31
11339;BME280;5724;42.684;23.252;2023-04-06T05:29:42;94012.53;;;-1.35;86.89
11339;BME280;5724;42.684;23.252;2023-04-06T05:32:07;94000.03;;;-1.26;87.36
11339;BME280;5724;42.684;23.252;2023-04-06T05:34:33;94013.97;;;-1.24;87.51
11339;BME280;5724;42.684;23.252;2023-04-06T05:36:58;93995.75;;;-1.27;87.33
11339;BME280;5724;42.684;23.252;2023-04-06T05:39:24;93995.03;;;-1.13;87.61
11339;BME280;5724;42.684;23.252;2023-04-06T05:41:50;93999.72;;;-1.05;87.46
11339;BME280;5724;42.684;23.252;2023-04-06T05:44:15;93999.66;;;-1.19;86.69
11339;BME280;5724;42.684;23.252;2023-04-06T05:46:41;94000.44;;;-1.19;87.30
11339;BME280;5724;42.684;23.252;2023-04-06T05:49:06;94006.41;;;-1.22;87.46
11339;BME280;5724;42.684;23.252;2023-04-06T05:51:31;93992.22;;;-1.22;87.38
11339;BME280;5724;42.684;23.252;2023-04-06T05:53:57;93998.91;;;-1.06;87.46
11339;BME280;5724;42.684;23.252;2023-04-06T05:56:23;93997.53;;;-1.03;87.86
11339;BME280;5724;42.684;23.252;2023-04-06T05:58:49;93992.84;;;-1.11;88.31
11339;BME280;5724;42.684;23.252;2023-04-06T06:01:14;93996.63;;;-1.12;88.23
11339;BME280;5724;42.684;23.252;2023-04-06T06:03:40;93987.91;;;-1.04;88.62
11339;BME280;5724;42.684;23.252;2023-04-06T06:06:06;94002.91;;;-1.03;87.84
11339;BME280;5724;42.684;23.252;2023-04-06T06:08:31;93987.78;;;-1.13;88.24
11339;BME280;5724;42.684;23.252;2023-04-06T06:10:57;93995.53;;;-1.11;88.11
11339;BME280;5724;42.684;23.252;2023-04-06T06:13:23;93980.41;;;-1.21;88.61
11339;BME280;5724;42.684;23.252;2023-04-06T06:15:49;93999.28;;;-1.12;89.26
11339;BME280;5724;42.684;23.252;2023-04-06T06:18:15;93979.97;;;-0.96;89.07
11339;BME280;5724;42.684;23.252;2023-04-06T06:20:40;93992.47;;;-0.91;88.89
11339;BME280;5724;42.684;23.252;2023-04-06T06:23:06;93977.97;;;-1.04;88.30
11339;BME280;5724;42.684;23.252;2023-04-06T06:25:32;93999.53;;;-0.95;87.95
11339;BME280;5724;42.684;23.252;2023-04-06T06:27:58;94003.31;;;-0.96;87.81
11339;BME280;5724;42.684;23.252;2023-04-06T06:30:24;93998.91;;;-1.06;88.30
11339;BME280;5724;42.684;23.252;2023-04-06T06:32:50;93999.38;;;-1.18;88.54
11339;BME280;5724;42.684;23.252;2023-04-06T06:35:16;93982.84;;;-1.06;88.64
11339;BME280;5724;42.684;23.252;2023-04-06T06:37:41;93988.81;;;-0.95;89.00
11339;BME280;5724;42.684;23.252;2023-04-06T06:40:09;93989.63;;;-0.81;89.12
11339;BME280;5724;42.684;23.252;2023-04-06T06:42:34;94008.38;;;-0.81;87.79
11339;BME280;5724;42.684;23.252;2023-04-06T06:45:00;94001.13;;;-0.94;87.10
11339;BME280;5724;42.684;23.252;2023-04-06T06:47:25;94007.69;;;-0.87;87.83
11339;BME280;5724;42.684;23.252;2023-04-06T06:49:51;94013.25;;;-0.83;87.31
11339;BME280;5724;42.684;23.252;2023-04-06T06:52:17;94014.09;;;-0.55;87.25
11339;BME280;5724;42.684;23.252;2023-04-06T06:54:42;94020.16;;;-0.63;87.04
11339;BME280;5724;42.684;23.252;2023-04-06T06:57:08;93997.16;;;-0.83;86.72
11339;BME280;5724;42.684;23.252;2023-04-06T06:59:34;94003.94;;;-0.58;86.77
11339;BME280;5724;42.684;23.252;2023-04-06T07:02:00;93998.56;;;-0.31;86.99
11339;BME280;5724;42.684;23.252;2023-04-06T07:04:25;94006.25;;;-0.38;85.33
11339;BME280;5724;42.684;23.252;2023-04-06T07:06:51;94006.53;;;-0.53;85.30
11339;BME280;5724;42.684;23.252;2023-04-06T07:09:18;93991.63;;;-0.45;85.41
11339;BME280;5724;42.684;23.252;2023-04-06T07:11:43;94000.78;;;-0.33;85.25
11339;BME280;5724;42.684;23.252;2023-04-06T07:14:09;94000.09;;;-0.38;84.37
11339;BME280;5724;42.684;23.252;2023-04-06T07:16:34;94017.06;;;-0.43;84.42
11339;BME280;5724;42.684;23.252;2023-04-06T07:19:00;94024.72;;;-0.50;85.50
11339;BME280;5724;42.684;23.252;2023-04-06T07:21:25;94010.69;;;-0.61;85.38
11339;BME280;5724;42.684;23.252;2023-04-06T07:23:51;94005.94;;;-0.64;85.81
11339;BME280;5724;42.684;23.252;2023-04-06T07:26:17;94002.75;;;-0.66;84.72
11339;BME280;5724;42.684;23.252;2023-04-06T07:28:42;94015.78;;;-0.45;84.80
11339;BME280;5724;42.684;23.252;2023-04-06T07:31:08;94030.31;;;-0.46;84.34
11339;BME280;5724;42.684;23.252;2023-04-06T07:33:33;93999.56;;;-0.40;84.43
11339;BME280;5724;42.684;23.252;2023-04-06T07:35:59;94017.19;;;-0.48;85.08
11339;BME280;5724;42.684;23.252;2023-04-06T07:38:25;94010.69;;;-0.61;85.40
11339;BME280;5724;42.684;23.252;2023-04-06T07:40:50;94005.25;;;-0.55;85.39
11339;BME280;5724;42.684;23.252;2023-04-06T07:43:16;94005.44;;;-0.52;87.49
11339;BME280;5724;42.684;23.252;2023-04-06T07:45:42;93990.94;;;-0.23;88.07
11339;BME280;5724;42.684;23.252;2023-04-06T07:48:07;93981.69;;;-0.17;86.45
11339;BME280;5724;42.684;23.252;2023-04-06T07:50:33;94002.78;;;-0.38;86.40
11339;BME280;5724;42.684;23.252;2023-04-06T07:52:59;93998.88;;;-0.32;87.43
11339;BME280;5724;42.684;23.252;2023-04-06T07:55:25;93994.41;;;-0.50;87.73
11339;BME280;5724;42.684;23.252;2023-04-06T07:57:51;93979.59;;;-0.34;89.12
11339;BME280;5724;42.684;23.252;2023-04-06T08:00:16;93997.28;;;-0.33;88.75
11339;BME280;5724;42.684;23.252;2023-04-06T08:02:42;93995.00;;;-0.26;88.28
11339;BME280;5724;42.684;23.252;2023-04-06T08:05:08;93996.78;;;-0.08;87.67
11339;BME280;5724;42.684;23.252;2023-04-06T08:07:34;93994.47;;;-0.01;87.64
11339;BME280;5724;42.684;23.252;2023-04-06T08:10:01;93996.66;;;-0.03;88.34
11339;BME280;5724;42.684;23.252;2023-04-06T08:12:26;93988.63;;;-0.03;87.10
11339;BME280;5724;42.684;23.252;2023-04-06T08:14:52;94001.13;;;0.16;87.40
11339;BME280;5724;42.684;23.252;2023-04-06T08:17:17;94002.56;;;-0.14;85.46
11339;BME280;5724;42.684;23.252;2023-04-06T08:19:43;93986.53;;;-0.06;84.64
11339;BME280;5724;42.684;23.252;2023-04-06T08:22:10;93992.72;;;0.31;85.03
11339;BME280;5724;42.684;23.252;2023-04-06T08:24:35;93991.56;;;0.23;83.35
11339;BME280;5724;42.684;23.252;2023-04-06T08:27:01;94000.25;;;0.43;83.21
11339;BME280;5724;42.684;23.252;2023-04-06T08:29:26;94002.63;;;0.44;81.82
11339;BME280;5724;42.684;23.252;2023-04-06T08:31:52;93991.09;;;0.44;81.33
11339;BME280;5724;42.684;23.252;2023-04-06T08:34:17;94010.13;;;0.34;80.31
11339;BME280;5724;42.684;23.252;2023-04-06T08:36:43;94015.72;;;0.23;81.13
11339;BME280;5724;42.684;23.252;2023-04-06T08:39:08;93979.75;;;-0.03;80.38
11339;BME280;5724;42.684;23.252;2023-04-06T08:41:34;94011.94;;;0.24;81.08
11339;BME280;5724;42.684;23.252;2023-04-06T08:44:01;94006.88;;;0.23;79.75
11339;BME280;5724;42.684;23.252;2023-04-06T08:46:27;93998.28;;;0.35;79.87
11339;BME280;5724;42.684;23.252;2023-04-06T08:49:01;94006.84;;;0.37;80.01
11339;BME280;5724;42.684;23.252;2023-04-06T08:51:28;93995.84;;;0.47;80.72
11339;BME280;5724;42.684;23.252;2023-04-06T08:53:55;94006.69;;;0.55;80.57
11339;BME280;5724;42.684;23.252;2023-04-06T08:56:23;94018.59;;;0.63;77.92
11339;BME280;5724;42.684;23.252;2023-04-06T08:58:49;94009.03;;;0.71;78.09
11339;BME280;5724;42.684;23.252;2023-04-06T09:01:17;94009.44;;;0.86;77.88
11339;BME280;5724;42.684;23.252;2023-04-06T09:03:43;93996.72;;;1.01;78.12
11339;BME280;5724;42.684;23.252;2023-04-06T09:06:11;93987.38;;;0.76;77.42
11339;BME280;5724;42.684;23.252;2023-04-06T09:08:39;93998.19;;;0.84;78.23
11339;BME280;5724;42.684;23.252;2023-04-06T09:11:05;93985.97;;;1.01;78.59
11339;BME280;5724;42.684;23.252;2023-04-06T09:13:31;93991.59;;;0.91;77.92
11339;BME280;5724;42.684;23.252;2023-04-06T09:16:04;93990.19;;;0.93;79.01
11339;BME280;5724;42.684;23.252;2023-04-06T09:18:32;93975.72;;;0.58;78.55
11339;BME280;5724;42.684;23.252;2023-04-06T09:21:03;93989.22;;;0.67;78.42
11339;BME280;5724;42.684;23.252;2023-04-06T09:23:29;93993.19;;;0.69;78.92
11339;BME280;5724;42.684;23.252;2023-04-06T09:26:13;93977.28;;;1.04;78.56
11339;BME280;5724;42.684;23.252;2023-04-06T09:28:50;93989.13;;;1.03;76.69
11339;BME280;5724;42.684;23.252;2023-04-06T09:31:30;93989.81;;;1.08;76.52
11339;BME280;5724;42.684;23.252;2023-04-06T09:33:58;93992.69;;;1.12;76.81
11339;BME280;5724;42.684;23.252;2023-04-06T09:36:32;93993.00;;;1.10;75.55
11339;BME280;5724;42.684;23.252;2023-04-06T09:39:02;93981.81;;;1.17;77.56
11339;BME280;5724;42.684;23.252;2023-04-06T09:44:05;93992.69;;;1.43;75.51
11339;BME280;5724;42.684;23.252;2023-04-06T09:46:38;93984.31;;;1.53;74.96
11339;BME280;5724;42.684;23.252;2023-04-06T09:49:05;93979.13;;;2.05;72.80
11339;BME280;5724;42.684;23.252;2023-04-06T09:51:40;93990.13;;;2.43;70.26
11339;BME280;5724;42.684;23.252;2023-04-06T09:54:07;93999.16;;;2.73;68.33
11339;BME280;5724;42.684;23.252;2023-04-06T09:56:43;93977.41;;;2.26;70.47
11339;BME280;5724;42.684;23.252;2023-04-06T09:59:13;93973.72;;;2.05;70.98
11339;BME280;5724;42.684;23.252;2023-04-06T10:01:39;93996.16;;;1.75;69.56
11339;BME280;5724;42.684;23.252;2023-04-06T10:04:13;93984.44;;;1.79;72.86
11339;BME280;5724;42.684;23.252;2023-04-06T10:06:43;93974.16;;;1.90;71.37
11339;BME280;5724;42.684;23.252;2023-04-06T10:09:13;93982.09;;;1.86;71.93
11339;BME280;5724;42.684;23.252;2023-04-06T10:11:40;93981.59;;;1.84;69.82
11339;BME280;5724;42.684;23.252;2023-04-06T10:14:06;93988.41;;;1.90;70.91
11339;BME280;5724;42.684;23.252;2023-04-06T10:16:32;93998.06;;;1.83;70.62
11339;BME280;5724;42.684;23.252;2023-04-06T10:19:09;93998.28;;;1.55;70.87
11339;BME280;5724;42.684;23.252;2023-04-06T10:21:38;93978.66;;;1.63;71.12
11339;BME280;5724;42.684;23.252;2023-04-06T10:24:08;94001.34;;;1.71;69.94
11339;BME280;5724;42.684;23.252;2023-04-06T10:26:37;93996.38;;;1.95;70.26
11339;BME280;5724;42.684;23.252;2023-04-06T10:29:04;93993.94;;;1.77;69.84
11339;BME280;5724;42.684;23.252;2023-04-06T10:31:30;93961.69;;;2.11;70.51
11339;BME280;5724;42.684;23.252;2023-04-06T10:33:57;93962.13;;;1.87;68.88
11339;BME280;5724;42.684;23.252;2023-04-06T10:36:25;93975.84;;;1.68;68.55
11339;BME280;5724;42.684;23.252;2023-04-06T10:38:59;93952.53;;;1.64;71.03
11339;BME280;5724;42.684;23.252;2023-04-06T10:41:35;93950.31;;;1.57;70.34
11339;BME280;5724;42.684;23.252;2023-04-06T10:44:01;93968.72;;;1.33;72.20
11339;BME280;5724;42.684;23.252;2023-04-06T10:46:29;93959.81;;;1.63;72.42
11339;BME280;5724;42.684;23.252;2023-04-06T10:48:56;93975.28;;;1.49;71.44
11339;BME280;5724;42.684;23.252;2023-04-06T10:51:27;93951.25;;;1.61;72.78
11339;BME280;5724;42.684;23.252;2023-04-06T10:53:54;93943.69;;;1.72;71.69
11339;BME280;5724;42.684;23.252;2023-04-06T10:56:22;93949.69;;;1.60;70.83
11339;BME280;5724;42.684;23.252;2023-04-06T10:58:50;93959.84;;;1.72;69.51
11339;BME280;5724;42.684;23.252;2023-04-06T11:01:17;93948.75;;;1.65;70.11
11339;BME280;5724;42.684;23.252;2023-04-06T11:03:51;93953.00;;;1.57;70.55
11339;BME280;5724;42.684;23.252;2023-04-06T11:06:19;93933.13;;;1.84;71.08
11339;BME280;5724;42.684;23.252;2023-04-06T11:08:45;93942.19;;;2.06;70.45
11339;BME280;5724;42.684;23.252;2023-04-06T11:11:15;93955.34;;;2.07;69.76
11339;BME280;5724;42.684;23.252;2023-04-06T11:13:50;93939.50;;;2.32;69.47
11339;BME280;5724;42.684;23.252;2023-04-06T11:19:06;93966.13;;;2.94;66.13
11339;BME280;5724;42.684;23.252;2023-04-06T11:21:36;93932.34;;;2.87;65.41
11339;BME280;5724;42.684;23.252;2023-04-06T11:24:19;93928.41;;;2.24;67.79
11339;BME280;5724;42.684;23.252;2023-04-06T11:26:46;93940.75;;;1.99;69.65
11339;BME280;5724;42.684;23.252;2023-04-06T11:29:15;93936.31;;;1.95;69.65
11339;BME280;5724;42.684;23.252;2023-04-06T11:32:04;93917.13;;;1.88;69.24
11339;BME280;5724;42.684;23.252;2023-04-06T11:34:34;93923.94;;;1.94;70.09
11339;BME280;5724;42.684;23.252;2023-04-06T11:37:12;93909.97;;;1.92;69.82
11339;BME280;5724;42.684;23.252;2023-04-06T11:39:47;93924.75;;;2.29;69.10
11339;BME280;5724;42.684;23.252;2023-04-06T11:42:21;93911.91;;;2.17;67.64
11339;BME280;5724;42.684;23.252;2023-04-06T11:44:50;93912.72;;;2.35;67.76
11339;BME280;5724;42.684;23.252;2023-04-06T11:47:16;93909.69;;;2.45;67.38
11339;BME280;5724;42.684;23.252;2023-04-06T11:49:43;93915.09;;;2.37;69.03
11339;BME280;5724;42.684;23.252;2023-04-06T11:52:23;93907.44;;;2.73;68.10
11339;BME280;5724;42.684;23.252;2023-04-06T11:54:51;93927.88;;;3.09;65.33
11339;BME280;5724;42.684;23.252;2023-04-06T11:57:18;93918.28;;;3.29;64.04
11339;BME280;5724;42.684;23.252;2023-04-06T11:59:44;93919.47;;;3.02;64.75
11339;BME280;5724;42.684;23.252;2023-04-06T12:02:10;93916.81;;;2.76;66.53
11339;BME280;5724;42.684;23.252;2023-04-06T12:04:36;93914.16;;;2.33;65.26
11339;BME280;5724;42.684;23.252;2023-04-06T12:07:02;93926.34;;;2.30;67.05
11339;BME280;5724;42.684;23.252;2023-04-06T12:09:28;93918.28;;;2.13;68.18
11339;BME280;5724;42.684;23.252;2023-04-06T12:11:53;93910.66;;;2.06;68.91
11339;BME280;5724;42.684;23.252;2023-04-06T12:14:20;93910.34;;;2.16;70.12
11339;BME280;5724;42.684;23.252;2023-04-06T12:16:45;93887.53;;;2.22;69.87
11339;BME280;5724;42.684;23.252;2023-04-06T12:19:11;93910.16;;;2.21;68.49
11339;BME280;5724;42.684;23.252;2023-04-06T12:21:36;93909.22;;;2.26;69.06
11339;BME280;5724;42.684;23.252;2023-04-06T12:24:03;93890.38;;;2.35;69.11
11339;BME280;5724;42.684;23.252;2023-04-06T12:26:29;93899.84;;;2.41;68.98
11339;BME280;5724;42.684;23.252;2023-04-06T12:28:55;93891.28;;;2.56;67.30
11339;BME280;5724;42.684;23.252;2023-04-06T12:31:22;93896.63;;;2.99;67.33
11339;BME280;5724;42.684;23.252;2023-04-06T12:33:50;93910.00;;;3.25;63.49
11339;BME280;5724;42.684;23.252;2023-04-06T12:36:19;93902.16;;;3.50;62.08
11339;BME280;5724;42.684;23.252;2023-04-06T12:38:49;93892.47;;;3.78;60.61
11339;BME280;5724;42.684;23.252;2023-04-06T12:41:17;93909.41;;;3.20;60.60
11339;BME280;5724;42.684;23.252;2023-04-06T12:43:43;93895.06;;;2.90;62.23
11339;BME280;5724;42.684;23.252;2023-04-06T12:46:10;93892.03;;;2.91;62.41
11339;BME280;5724;42.684;23.252;2023-04-06T12:48:36;93892.38;;;2.81;61.79
11339;BME280;5724;42.684;23.252;2023-04-06T12:51:05;93887.88;;;2.94;62.13
11339;BME280;5724;42.684;23.252;2023-04-06T12:53:32;93886.44;;;2.96;61.78
11339;BME280;5724;42.684;23.252;2023-04-06T12:55:59;93897.56;;;2.95;61.19
11339;BME280;5724;42.684;23.252;2023-04-06T12:58:25;93886.78;;;2.95;60.59
11339;BME280;5724;42.684;23.252;2023-04-06T13:00:55;93895.16;;;3.02;60.01
11339;BME280;5724;42.684;23.252;2023-04-06T13:03:22;93896.91;;;2.98;58.64
11339;BME280;5724;42.684;23.252;2023-04-06T13:05:51;93877.22;;;3.06;59.70
11339;BME280;5724;42.684;23.252;2023-04-06T13:08:18;93879.13;;;3.05;60.29